M12 weather

Steele Municipal Airport
Steele, Missouri, United States

Public forecast

Using degrees Fahrenheit for public forecast. Weather courtesy of forecast.io.

Closest aviation weather report (METAR) to Steele Municipal Airport

Report is more than 6 hours old.

Closest report is Arkansas International Airport, 8.8 nm (16.3 km) SSW. Retrieved 2020/05/28 20:56 UTC (10 hours ago):

KBYH 282056Z 21014G23KT 10SM -RA SCT060 OVC150 22/16 A2989 RMK LAST

Closest aviation forecast (TAF) to Steele Municipal Airport

Closest forecast is Jonesboro Municipal Airport, 41.2 nm (76.3 km) WSW. Retrieved 2020/05/29 06:22 UTC (35 minutes ago):

TAF KJBR 290520Z 2906/3006 VRB03KT P6SM BKN120 FM291300 33006KT P6SM BKN060 FM291500 34008KT P6SM SCT025 FM291700 35008KT P6SM SCT060 FM300500 01005KT P6SM FEW200